Terminal Aerodrome Forecast
Issued by NWS

Home | Current Version | Previous Version | Text Only | Print | Product List | Glossary On
Versions: 1 2 3 4 5 6 7 8 9 10 11 12 13 14
000
FTUS43 KPAH 190500
TAFCGI
TAF
KCGI 190520Z 1906/2006 VRB03KT 5SM BR SKC
      TEMPO 1909/1913 00000KT 2SM BR BCFG
     FM191400 VRB03KT 6SM BR SKC
     FM191600 20003KT P6SM BKN250
      AMD NOT SKED=

USA.gov is the U.S. government's official web portal to all federal, state and local government web resources and services.